Overview Statistics Trail Chart Weather Telemetry Raw packets
 

This is the latest recevied weather packets stored in our database for station/object W5ITZ. If no packets are shown the sender has not sent any weather packets the latest 10 day(s).

<< 16 17 18 19 20 21 22 >>
Time Temp. Humidity Pressure Rain* Wind** Luminosity Snow
1788112405 34.44° C 54% 1016 hPa 0 mm - 212 W/m² -
1788112100 34.44° C 53% 1016.1 hPa 0 mm - 347 W/m² -
1788111796 35° C 53% 1016 hPa 0 mm - 1094 W/m² -
1788111495 35° C 54% 1016.3 hPa 0 mm - 1056 W/m² -
1788111191 33.89° C 56% 1016.2 hPa 0 mm - 1020 W/m² -
1788110882 33.33° C 57% 1016.4 hPa 0 mm - 597 W/m² -
1788110578 34.44° C 54% 1016.4 hPa 0 mm - 1070 W/m² -
1788110274 35° C 54% 1016.5 hPa 0 mm - 1001 W/m² -
1788109969 33.89° C 57% 1016.6 hPa 0 mm - 957 W/m² -
1788109663 33.33° C 58% 1016.6 hPa 0 mm - 992 W/m² -
1788109363 33.33° C 59% 1016.6 hPa 0 mm - 947 W/m² -
1788109061 32.78° C 61% 1016.7 hPa 0 mm - 947 W/m² -
1788108757 32.78° C 61% 1017 hPa 0 mm - 998 W/m² -
1788108454 33.33° C 60% 1016.9 hPa 0 mm - 970 W/m² -
1788108149 33.33° C 60% 1017 hPa 0 mm - 985 W/m² -
1788107846 33.33° C 60% 1016.9 hPa 0 mm - 960 W/m² -
1788107542 32.78° C 61% 1017 hPa 0 mm - 581 W/m² -
1788107236 33.33° C 60% 1017.1 hPa 0 mm - 946 W/m² -
1788106932 33.33° C 58% 1017.1 hPa 0 mm - 197 W/m² -
1788106627 33.33° C 57% 1017 hPa 0 mm - 553 W/m² -
1788106320 33.33° C 58% 1017.1 hPa 0 mm - 826 W/m² -
1788106017 33.33° C 57% 1016.9 hPa 0 mm - 805 W/m² -
1788105711 33.33° C 59% 1017.1 hPa 0 mm - 798 W/m² -
1788105408 32.22° C 65% 1017.1 hPa 0 mm - 751 W/m² -
1788105105 32.22° C 65% 1017.1 hPa 0 mm - 728 W/m² -

* Rain latest hour (hover to see other rain measurements)
** Current wind speed in m/s (hover to see current wind gust speed)